createdAt,value
2018-02-15T00:00:04.808Z,985.48
2018-02-15T00:01:11.772Z,985.48
2018-02-15T00:02:18.487Z,985.44
2018-02-15T00:03:25.272Z,985.48
2018-02-15T00:04:32.022Z,985.48
2018-02-15T00:05:38.704Z,985.35
2018-02-15T00:06:45.435Z,985.41
2018-02-15T00:07:52.133Z,985.37
2018-02-15T00:08:58.818Z,985.43
2018-02-15T00:10:05.529Z,985.39
2018-02-15T00:11:12.304Z,985.37
2018-02-15T00:12:18.992Z,985.37
2018-02-15T00:13:25.795Z,985.39
2018-02-15T00:14:32.566Z,985.40
2018-02-15T00:15:39.260Z,985.44
2018-02-15T00:16:46.060Z,985.47
2018-02-15T00:17:52.739Z,985.33
2018-02-15T00:18:59.446Z,985.37
2018-02-15T00:20:06.155Z,985.36
2018-02-15T00:21:12.863Z,985.41
2018-02-15T00:22:19.556Z,985.45
2018-02-15T00:23:26.290Z,985.35
2018-02-15T00:24:33.038Z,985.40
2018-02-15T00:25:39.719Z,985.39
2018-02-15T00:26:46.399Z,985.31
2018-02-15T00:27:53.200Z,985.31
2018-02-15T00:29:00.149Z,985.24
2018-02-15T00:30:06.842Z,985.21
2018-02-15T00:31:13.556Z,985.27
2018-02-15T00:32:20.257Z,985.27
2018-02-15T00:33:26.969Z,985.23
2018-02-15T00:34:33.684Z,985.21
2018-02-15T00:35:40.447Z,985.33
2018-02-15T00:36:47.127Z,985.22
2018-02-15T00:37:53.820Z,985.29
2018-02-15T00:39:00.577Z,985.22
2018-02-15T00:40:07.283Z,985.29
2018-02-15T00:41:14.143Z,985.26
2018-02-15T00:42:20.830Z,985.21
2018-02-15T00:43:27.764Z,985.23
2018-02-15T00:44:34.470Z,985.09
2018-02-15T00:45:41.219Z,985.14
2018-02-15T00:46:48.139Z,985.11
2018-02-15T00:47:54.828Z,985.13
2018-02-15T00:49:01.619Z,985.12
2018-02-15T00:50:08.331Z,985.08
2018-02-15T00:51:15.043Z,985.08
2018-02-15T00:52:21.723Z,985.10
2018-02-15T00:53:28.439Z,985.07
2018-02-15T00:54:35.127Z,985.08
2018-02-15T00:55:41.849Z,985.12
2018-02-15T00:56:48.632Z,985.12
2018-02-15T00:57:55.339Z,985.07
2018-02-15T00:59:02.071Z,985.01
2018-02-15T01:00:08.800Z,985.04
2018-02-15T01:01:15.776Z,985.05
2018-02-15T01:02:22.480Z,984.99
2018-02-15T01:03:29.168Z,984.93
2018-02-15T01:04:35.907Z,984.85
2018-02-15T01:05:42.620Z,984.94
2018-02-15T01:06:49.306Z,984.90
2018-02-15T01:07:56.084Z,984.77
2018-02-15T01:09:02.832Z,984.84
2018-02-15T01:10:09.552Z,984.85
2018-02-15T01:11:16.271Z,984.89
2018-02-15T01:12:23.315Z,984.85
2018-02-15T01:13:30.028Z,984.91
2018-02-15T01:14:36.765Z,984.86
2018-02-15T01:15:43.499Z,984.85
2018-02-15T01:16:50.256Z,984.74
2018-02-15T01:17:56.952Z,984.81
2018-02-15T01:19:03.671Z,984.74
2018-02-15T01:20:10.376Z,984.80
2018-02-15T01:21:17.133Z,984.78
2018-02-15T01:22:23.819Z,984.75
2018-02-15T01:23:30.620Z,984.82
2018-02-15T01:24:37.287Z,984.68
2018-02-15T01:25:44.043Z,984.58
2018-02-15T01:26:50.791Z,984.56
2018-02-15T01:27:57.496Z,984.55
2018-02-15T01:29:04.593Z,984.54
2018-02-15T01:30:11.286Z,984.54
2018-02-15T01:31:18.007Z,984.52
2018-02-15T01:32:24.760Z,984.57
2018-02-15T01:33:31.444Z,984.57
2018-02-15T01:34:38.226Z,984.59
2018-02-15T01:35:45.070Z,984.45
2018-02-15T01:36:51.854Z,984.40
2018-02-15T01:37:58.617Z,984.35
2018-02-15T01:39:05.396Z,984.30
2018-02-15T01:40:12.094Z,984.30
2018-02-15T01:41:18.903Z,984.28
2018-02-15T01:42:25.583Z,984.35
2018-02-15T01:43:32.311Z,984.42
2018-02-15T01:44:39.021Z,984.40
2018-02-15T01:45:45.707Z,984.45
2018-02-15T01:46:52.534Z,984.42
2018-02-15T01:47:59.253Z,984.34
2018-02-15T01:49:05.953Z,984.33
2018-02-15T01:50:12.695Z,984.34
2018-02-15T01:51:24.571Z,984.32
2018-02-15T01:52:26.558Z,984.28
2018-02-15T01:53:33.272Z,984.24
2018-02-15T01:54:40.053Z,984.24
2018-02-15T01:55:47.048Z,984.24
2018-02-15T01:56:53.736Z,984.16
2018-02-15T01:58:00.552Z,984.11
2018-02-15T01:59:07.261Z,984.11
2018-02-15T02:00:13.999Z,984.17
2018-02-15T02:01:20.704Z,984.11
2018-02-15T02:02:27.423Z,984.06
2018-02-15T02:03:34.083Z,984.05
2018-02-15T02:04:40.782Z,984.06
2018-02-15T02:05:47.564Z,984.05
2018-02-15T02:06:54.260Z,983.99
2018-02-15T02:08:00.987Z,984.07
2018-02-15T02:09:07.731Z,984.00
2018-02-15T02:10:14.463Z,984.03
2018-02-15T02:11:21.280Z,984.03
2018-02-15T02:12:28.005Z,984.03
2018-02-15T02:13:34.773Z,983.94
2018-02-15T02:14:41.503Z,983.97
2018-02-15T02:15:48.363Z,983.99
2018-02-15T02:16:55.088Z,984.00
2018-02-15T02:18:01.833Z,984.03
2018-02-15T02:19:08.621Z,983.98
2018-02-15T02:20:15.464Z,983.98
2018-02-15T02:21:22.189Z,984.02
2018-02-15T02:22:28.911Z,983.97
2018-02-15T02:23:35.703Z,983.99
2018-02-15T02:24:42.535Z,984.05
2018-02-15T02:25:49.254Z,983.93
2018-02-15T02:26:55.979Z,983.93
2018-02-15T02:28:02.821Z,983.90
2018-02-15T02:29:09.629Z,984.02
2018-02-15T02:30:16.369Z,983.97
2018-02-15T02:31:23.115Z,983.92
2018-02-15T02:32:29.821Z,983.95
2018-02-15T02:33:36.656Z,983.96
2018-02-15T02:34:43.427Z,983.96
2018-02-15T02:35:50.407Z,983.92
2018-02-15T02:36:57.099Z,983.99
2018-02-15T02:38:03.825Z,983.87
2018-02-15T02:39:10.557Z,983.94
2018-02-15T02:40:17.392Z,983.94
2018-02-15T02:41:24.181Z,983.94
2018-02-15T02:42:30.887Z,983.98
2018-02-15T02:43:37.632Z,983.99
2018-02-15T02:44:44.360Z,983.90
2018-02-15T02:45:51.213Z,983.89
2018-02-15T02:46:57.922Z,983.89
2018-02-15T02:48:04.655Z,983.81
2018-02-15T02:49:11.405Z,983.79
2018-02-15T02:50:18.123Z,983.82
2018-02-15T02:51:24.947Z,983.70
2018-02-15T02:52:31.669Z,983.67
2018-02-15T02:53:38.405Z,983.75
2018-02-15T02:54:45.134Z,983.71
2018-02-15T02:55:51.888Z,983.70
2018-02-15T02:56:58.703Z,983.84
2018-02-15T02:58:05.432Z,983.68
2018-02-15T02:59:12.228Z,983.73
2018-02-15T03:00:18.956Z,983.73
2018-02-15T03:01:25.771Z,983.82
2018-02-15T03:02:32.484Z,983.75
2018-02-15T03:03:39.224Z,983.78
2018-02-15T03:04:45.954Z,983.73
2018-02-15T03:05:52.679Z,983.79
2018-02-15T03:06:59.518Z,983.76
2018-02-15T03:08:06.265Z,983.81
2018-02-15T03:09:13.027Z,983.80
2018-02-15T03:10:19.746Z,983.87
2018-02-15T03:11:26.482Z,983.67
2018-02-15T03:12:33.265Z,983.76
2018-02-15T03:13:39.971Z,983.71
2018-02-15T03:14:46.772Z,983.75
2018-02-15T03:15:53.467Z,983.79
2018-02-15T03:17:00.183Z,983.79
2018-02-15T03:18:06.975Z,983.75
2018-02-15T03:19:13.676Z,983.81
2018-02-15T03:20:20.418Z,983.83
2018-02-15T03:21:27.136Z,983.82
2018-02-15T03:22:33.885Z,983.91
2018-02-15T03:23:40.568Z,983.86
2018-02-15T03:24:47.368Z,983.90
2018-02-15T03:25:54.064Z,983.82
2018-02-15T03:27:00.807Z,983.87
2018-02-15T03:28:07.516Z,983.82
2018-02-15T03:29:14.238Z,983.87
2018-02-15T03:30:20.963Z,983.84
2018-02-15T03:31:27.728Z,983.85
2018-02-15T03:32:34.461Z,983.78
2018-02-15T03:33:41.171Z,983.74
2018-02-15T03:34:47.876Z,983.68
2018-02-15T03:35:54.594Z,983.70
2018-02-15T03:37:01.280Z,983.73
2018-02-15T03:38:07.987Z,983.69
2018-02-15T03:39:14.783Z,983.72
2018-02-15T03:40:21.627Z,983.75
2018-02-15T03:41:28.361Z,983.74
2018-02-15T03:42:35.052Z,983.76
2018-02-15T03:43:41.771Z,983.75
2018-02-15T03:44:48.531Z,983.68
2018-02-15T03:45:55.336Z,983.68
2018-02-15T03:47:02.063Z,983.68
2018-02-15T03:48:08.779Z,983.70
2018-02-15T03:49:15.626Z,983.65
2018-02-15T03:50:22.349Z,983.56
2018-02-15T03:51:29.054Z,983.68
2018-02-15T03:52:35.777Z,983.62
2018-02-15T03:53:42.504Z,983.73
2018-02-15T03:54:49.213Z,983.62
2018-02-15T03:55:56.032Z,983.70
2018-02-15T03:57:02.721Z,983.68
2018-02-15T03:58:09.447Z,983.66
2018-02-15T03:59:16.172Z,983.66
2018-02-15T04:00:22.890Z,983.65
2018-02-15T04:01:29.652Z,983.56
2018-02-15T04:02:36.444Z,983.56
2018-02-15T04:03:43.229Z,983.62
2018-02-15T04:04:49.949Z,983.56
2018-02-15T04:05:56.663Z,983.57
2018-02-15T04:07:03.351Z,983.55
2018-02-15T04:08:10.031Z,983.55
2018-02-15T04:09:16.856Z,983.51
2018-02-15T04:10:23.824Z,983.49
2018-02-15T04:11:30.636Z,983.52
2018-02-15T04:12:37.347Z,983.54
2018-02-15T04:13:44.084Z,983.57
2018-02-15T04:14:50.828Z,983.57
2018-02-15T04:15:57.536Z,983.66
2018-02-15T04:17:04.242Z,983.68
2018-02-15T04:18:11.040Z,983.61
2018-02-15T04:19:17.767Z,983.60
2018-02-15T04:20:24.616Z,983.61
2018-02-15T04:21:31.339Z,983.50
2018-02-15T04:22:38.100Z,983.58
2018-02-15T04:23:44.828Z,983.60
2018-02-15T04:24:51.831Z,983.50
2018-02-15T04:25:58.580Z,983.59
2018-02-15T04:27:05.307Z,983.60
2018-02-15T04:28:12.050Z,983.47
2018-02-15T04:29:18.817Z,983.53
2018-02-15T04:30:25.679Z,983.49
2018-02-15T04:31:32.411Z,983.43
2018-02-15T04:32:39.257Z,983.47
2018-02-15T04:33:46.067Z,983.52
2018-02-15T04:34:52.828Z,983.46
2018-02-15T04:35:59.680Z,983.49
2018-02-15T04:37:06.491Z,983.48
2018-02-15T04:38:13.195Z,983.53
2018-02-15T04:39:19.951Z,983.54
2018-02-15T04:40:26.795Z,983.55
2018-02-15T04:41:33.596Z,983.53
2018-02-15T04:42:40.801Z,983.55
2018-02-15T04:43:47.104Z,983.62
2018-02-15T04:44:53.839Z,983.61
2018-02-15T04:46:00.693Z,983.65
2018-02-15T04:47:07.456Z,983.63
2018-02-15T04:48:14.203Z,983.77
2018-02-15T04:49:20.928Z,983.70
2018-02-15T04:50:27.740Z,983.79
2018-02-15T04:51:34.511Z,983.71
2018-02-15T04:52:41.238Z,983.67
2018-02-15T04:53:47.988Z,983.71
2018-02-15T04:54:54.844Z,983.70
2018-02-15T04:56:01.635Z,983.66
2018-02-15T04:57:08.633Z,983.66
2018-02-15T04:58:15.363Z,983.58
2018-02-15T04:59:22.176Z,983.64
2018-02-15T05:00:28.923Z,983.63
2018-02-15T05:01:35.748Z,983.65
2018-02-15T05:02:42.528Z,983.60
2018-02-15T05:03:49.292Z,983.62
2018-02-15T05:04:56.017Z,983.54
2018-02-15T05:06:02.810Z,983.51
2018-02-15T05:07:09.601Z,983.56
2018-02-15T05:08:16.327Z,983.49
2018-02-15T05:09:23.068Z,983.53
2018-02-15T05:10:29.887Z,983.53
2018-02-15T05:11:36.621Z,983.47
2018-02-15T05:12:43.943Z,983.46
2018-02-15T05:13:50.674Z,983.45
2018-02-15T05:14:57.466Z,983.47
2018-02-15T05:16:04.167Z,983.39
2018-02-15T05:17:10.926Z,983.40
2018-02-15T05:18:17.675Z,983.38
2018-02-15T05:19:24.376Z,983.43
2018-02-15T05:20:31.169Z,983.43
2018-02-15T05:21:37.874Z,983.43
2018-02-15T05:22:44.630Z,983.47
2018-02-15T05:23:51.354Z,983.52
2018-02-15T05:24:58.085Z,983.41
2018-02-15T05:26:04.882Z,983.44
2018-02-15T05:27:11.596Z,983.43
2018-02-15T05:28:18.412Z,983.39
2018-02-15T05:29:25.216Z,983.39
2018-02-15T05:30:31.985Z,983.41
2018-02-15T05:31:38.680Z,983.31
2018-02-15T05:32:45.400Z,983.32
2018-02-15T05:33:52.164Z,983.24
2018-02-15T05:34:58.872Z,983.20
2018-02-15T05:36:05.573Z,983.30
2018-02-15T05:37:12.394Z,983.26
2018-02-15T05:38:19.192Z,983.16
2018-02-15T05:39:25.980Z,983.16
2018-02-15T05:40:32.804Z,983.18
2018-02-15T05:41:39.568Z,983.23
2018-02-15T05:42:46.293Z,983.27
2018-02-15T05:43:53.068Z,983.17
2018-02-15T05:44:59.897Z,983.25
2018-02-15T05:46:06.790Z,983.17
2018-02-15T05:47:13.852Z,983.22
2018-02-15T05:48:20.575Z,983.24
2018-02-15T05:49:27.299Z,983.23
2018-02-15T05:50:33.982Z,983.26
2018-02-15T05:51:40.896Z,983.36
2018-02-15T05:52:47.635Z,983.33
2018-02-15T05:53:54.399Z,983.33
2018-02-15T05:55:01.224Z,983.34
2018-02-15T05:56:07.989Z,983.29
2018-02-15T05:57:14.711Z,983.25
2018-02-15T05:58:21.428Z,983.33
2018-02-15T05:59:28.235Z,983.29
2018-02-15T06:00:34.959Z,983.21
2018-02-15T06:01:41.792Z,983.28
2018-02-15T06:02:48.522Z,983.23
2018-02-15T06:03:55.349Z,983.18
2018-02-15T06:05:02.085Z,983.15
2018-02-15T06:06:08.791Z,983.16
2018-02-15T06:07:15.948Z,983.22
2018-02-15T06:08:22.788Z,983.25
2018-02-15T06:09:29.917Z,983.21
2018-02-15T06:10:36.631Z,983.23
2018-02-15T06:11:44.366Z,983.25
2018-02-15T06:12:50.647Z,983.25
2018-02-15T06:13:57.416Z,983.39
2018-02-15T06:15:04.197Z,983.30
2018-02-15T06:16:11.064Z,983.31
2018-02-15T06:17:17.811Z,983.27
2018-02-15T06:18:24.599Z,983.38
2018-02-15T06:19:31.396Z,983.38
2018-02-15T06:20:38.207Z,983.49
2018-02-15T06:21:44.944Z,983.34
2018-02-15T06:22:51.800Z,983.30
2018-02-15T06:23:58.574Z,983.31
2018-02-15T06:25:05.287Z,983.28
2018-02-15T06:26:12.064Z,983.38
2018-02-15T06:27:18.891Z,983.28
2018-02-15T06:28:25.619Z,983.28
2018-02-15T06:29:32.412Z,983.34
2018-02-15T06:30:39.155Z,983.42
2018-02-15T06:31:45.968Z,983.49
2018-02-15T06:32:52.752Z,983.54
2018-02-15T06:33:59.504Z,983.55
2018-02-15T06:35:06.401Z,983.57
2018-02-15T06:36:13.203Z,983.55
2018-02-15T06:37:19.945Z,983.57
2018-02-15T06:38:26.815Z,983.50
2018-02-15T06:39:33.639Z,983.55
2018-02-15T06:40:40.304Z,983.58
2018-02-15T06:41:47.253Z,983.58
2018-02-15T06:42:54.102Z,983.68
2018-02-15T06:44:01.272Z,983.68
2018-02-15T06:45:08.016Z,983.65
2018-02-15T06:46:14.815Z,983.67
2018-02-15T06:47:21.608Z,983.66
2018-02-15T06:48:28.372Z,983.75
2018-02-15T06:49:35.347Z,983.73
2018-02-15T06:50:42.223Z,983.67
2018-02-15T06:51:49.115Z,983.72
2018-02-15T06:52:55.867Z,983.68
2018-02-15T06:54:02.909Z,983.68
2018-02-15T06:55:09.663Z,983.69
2018-02-15T06:56:16.419Z,983.69
2018-02-15T06:57:23.318Z,983.73
2018-02-15T06:58:30.105Z,983.75
2018-02-15T06:59:36.878Z,983.68
2018-02-15T07:00:43.816Z,983.58
2018-02-15T07:01:50.619Z,983.57
2018-02-15T07:02:57.419Z,983.50
2018-02-15T07:04:04.208Z,983.42
2018-02-15T07:05:11.036Z,983.29
2018-02-15T07:06:17.815Z,983.31
2018-02-15T07:07:24.601Z,983.30
2018-02-15T07:08:31.400Z,983.29
2018-02-15T07:09:38.172Z,983.30
2018-02-15T07:10:45.013Z,983.27
2018-02-15T07:11:51.764Z,983.27
2018-02-15T07:12:58.504Z,983.29
2018-02-15T07:14:05.319Z,983.32
2018-02-15T07:15:12.102Z,983.34
2018-02-15T07:16:18.881Z,983.36
2018-02-15T07:17:25.631Z,983.45
2018-02-15T07:18:32.364Z,983.45
2018-02-15T07:19:39.184Z,983.45
2018-02-15T07:20:45.940Z,983.54
2018-02-15T07:21:52.724Z,983.54
2018-02-15T07:22:59.556Z,983.45
2018-02-15T07:24:06.439Z,983.44
2018-02-15T07:25:13.207Z,983.45
2018-02-15T07:26:19.983Z,983.50
2018-02-15T07:27:26.751Z,983.47
2018-02-15T07:28:33.516Z,983.39
2018-02-15T07:29:40.482Z,983.39
2018-02-15T07:30:47.280Z,983.44
2018-02-15T07:31:54.151Z,983.41
2018-02-15T07:33:00.928Z,983.39
2018-02-15T07:34:07.708Z,983.42
2018-02-15T07:35:14.570Z,983.36
2018-02-15T07:36:21.328Z,983.33
2018-02-15T07:37:28.111Z,983.29
2018-02-15T07:38:34.884Z,983.44
2018-02-15T07:39:41.652Z,983.48
2018-02-15T07:40:48.852Z,983.56
2018-02-15T07:41:55.136Z,983.43
2018-02-15T07:43:01.895Z,983.56
2018-02-15T07:44:08.744Z,983.49
2018-02-15T07:45:15.491Z,983.64
2018-02-15T07:46:22.251Z,983.63
2018-02-15T07:47:29.003Z,983.65
2018-02-15T07:48:35.815Z,983.63
2018-02-15T07:49:42.652Z,983.66
2018-02-15T07:50:49.473Z,983.74
2018-02-15T07:51:56.272Z,983.71
2018-02-15T07:53:03.101Z,983.69
2018-02-15T07:54:09.995Z,983.79
2018-02-15T07:55:16.804Z,983.74
2018-02-15T07:55:35.053Z,983.79
2018-02-15T07:56:41.919Z,983.77
2018-02-15T07:57:48.760Z,983.86
2018-02-15T07:58:55.622Z,983.92
2018-02-15T08:00:02.416Z,983.86
2018-02-15T08:01:09.520Z,983.98
2018-02-15T08:02:16.327Z,983.99
2018-02-15T08:03:23.220Z,983.97
2018-02-15T08:04:30.128Z,983.90
2018-02-15T08:05:37.000Z,983.83
2018-02-15T08:06:43.855Z,983.83
2018-02-15T08:07:50.943Z,983.83
2018-02-15T08:08:57.427Z,983.85
2018-02-15T08:10:04.356Z,983.79
2018-02-15T08:11:11.149Z,983.81
2018-02-15T08:12:18.028Z,983.83
2018-02-15T08:13:25.639Z,983.84
2018-02-15T08:14:32.035Z,983.76
2018-02-15T08:15:39.017Z,983.77
2018-02-15T08:16:45.891Z,983.83
2018-02-15T08:17:52.684Z,983.81
2018-02-15T08:18:59.543Z,983.79
2018-02-15T08:20:06.416Z,983.88
2018-02-15T08:21:16.822Z,983.89
2018-02-15T08:22:20.204Z,983.92
2018-02-15T08:23:27.011Z,983.93
2018-02-15T08:24:33.892Z,983.91
2018-02-15T08:25:40.711Z,983.90
2018-02-15T08:26:47.487Z,983.92
2018-02-15T08:27:54.357Z,983.94
2018-02-15T08:29:01.140Z,983.90
2018-02-15T08:30:07.936Z,983.99
2018-02-15T08:31:14.771Z,983.99
2018-02-15T08:32:21.540Z,984.03
2018-02-15T08:33:28.444Z,983.99
2018-02-15T08:34:35.336Z,984.05
2018-02-15T08:35:42.104Z,984.01
2018-02-15T08:36:48.865Z,983.99
2018-02-15T08:37:55.669Z,984.18
2018-02-15T08:39:02.511Z,983.99
2018-02-15T08:40:09.510Z,984.01
2018-02-15T08:41:16.341Z,984.09
2018-02-15T08:42:23.349Z,984.05
2018-02-15T08:43:30.217Z,984.00
2018-02-15T08:44:37.079Z,984.07
2018-02-15T08:45:43.932Z,984.13
2018-02-15T08:46:50.680Z,984.07
2018-02-15T08:47:57.500Z,984.14
2018-02-15T08:49:04.268Z,984.20
2018-02-15T08:50:11.024Z,984.19
2018-02-15T08:51:17.760Z,984.17
2018-02-15T08:52:24.585Z,984.12
2018-02-15T08:53:31.363Z,984.10
2018-02-15T08:54:38.165Z,984.11
2018-02-15T08:55:45.029Z,984.10
2018-02-15T08:56:51.764Z,984.12
2018-02-15T08:57:58.602Z,984.14
2018-02-15T08:59:05.333Z,984.05
2018-02-15T09:00:12.129Z,984.09
2018-02-15T09:01:18.883Z,984.00
2018-02-15T09:02:25.629Z,984.04
2018-02-15T09:03:32.372Z,984.08
2018-02-15T09:04:39.252Z,984.00
2018-02-15T09:05:45.984Z,984.14
2018-02-15T09:06:52.728Z,984.14
2018-02-15T09:07:59.467Z,984.17
2018-02-15T09:09:06.304Z,984.17
2018-02-15T09:10:13.088Z,984.15
2018-02-15T09:11:19.832Z,984.09
2018-02-15T09:12:26.592Z,984.10
2018-02-15T09:13:33.413Z,984.13
2018-02-15T09:14:40.153Z,984.18
2018-02-15T09:15:46.944Z,984.24
2018-02-15T09:16:53.659Z,984.33
2018-02-15T09:18:00.505Z,984.36
2018-02-15T09:19:07.263Z,984.39
2018-02-15T09:20:14.139Z,984.33
2018-02-15T09:21:20.962Z,984.30
2018-02-15T09:22:27.674Z,984.34
2018-02-15T09:23:34.413Z,984.39
2018-02-15T09:24:41.185Z,984.35
2018-02-15T09:25:48.059Z,984.29
2018-02-15T09:26:54.795Z,984.29
2018-02-15T09:28:01.565Z,984.30
2018-02-15T09:29:08.287Z,984.37
2018-02-15T09:30:15.016Z,984.39
2018-02-15T09:31:21.814Z,984.36
2018-02-15T09:32:28.535Z,984.29
2018-02-15T09:33:35.315Z,984.36
2018-02-15T09:34:42.035Z,984.31
2018-02-15T09:35:48.888Z,984.22
2018-02-15T09:36:55.671Z,984.23
2018-02-15T09:38:02.408Z,984.15
2018-02-15T09:39:09.180Z,984.10
2018-02-15T09:40:15.980Z,984.05
2018-02-15T09:41:22.719Z,984.01
2018-02-15T09:42:29.544Z,983.96
2018-02-15T09:43:36.473Z,983.92
2018-02-15T09:44:43.415Z,983.97
2018-02-15T09:45:50.221Z,983.96
2018-02-15T09:46:56.966Z,983.97
2018-02-15T09:48:03.715Z,984.00
2018-02-15T09:49:10.463Z,984.14
2018-02-15T09:50:17.275Z,984.11
2018-02-15T09:51:23.985Z,984.24
2018-02-15T09:52:30.750Z,984.26
2018-02-15T09:53:37.480Z,984.25
2018-02-15T09:54:44.394Z,984.23
2018-02-15T09:55:51.168Z,984.24
2018-02-15T09:56:57.949Z,984.21
2018-02-15T09:58:04.727Z,984.17
2018-02-15T09:59:11.493Z,984.20
2018-02-15T10:00:18.253Z,984.27
2018-02-15T10:01:25.004Z,984.26
2018-02-15T10:02:31.756Z,984.31
2018-02-15T10:03:38.561Z,984.28
2018-02-15T10:04:45.286Z,984.28
2018-02-15T10:05:52.024Z,984.30
2018-02-15T10:06:58.751Z,984.28
2018-02-15T10:08:05.466Z,984.20
2018-02-15T10:09:12.297Z,984.15
2018-02-15T10:10:19.067Z,984.11
2018-02-15T10:11:25.904Z,983.99
2018-02-15T10:12:32.692Z,984.04
2018-02-15T10:13:39.456Z,984.01
2018-02-15T10:14:46.340Z,984.10
2018-02-15T10:15:53.153Z,984.13
2018-02-15T10:16:59.895Z,984.14
2018-02-15T10:18:06.631Z,984.26
2018-02-15T10:19:13.422Z,984.39
2018-02-15T10:20:20.225Z,984.41
2018-02-15T10:21:27.049Z,984.51
2018-02-15T10:22:33.845Z,984.46
2018-02-15T10:23:40.680Z,984.50
2018-02-15T10:24:47.435Z,984.56
2018-02-15T10:25:54.196Z,984.57
2018-02-15T10:27:01.082Z,984.58
2018-02-15T10:28:08.086Z,984.54
2018-02-15T10:29:15.149Z,984.63
2018-02-15T10:30:22.101Z,984.59
2018-02-15T10:31:28.865Z,984.41
2018-02-15T10:32:35.621Z,984.54
2018-02-15T10:33:42.354Z,984.50
2018-02-15T10:34:49.188Z,984.46
2018-02-15T10:35:55.955Z,984.44
2018-02-15T10:37:02.721Z,984.58
2018-02-15T10:38:09.453Z,984.52
2018-02-15T10:39:16.365Z,984.56
2018-02-15T10:40:23.236Z,984.56
2018-02-15T10:41:30.195Z,984.51
2018-02-15T10:42:36.948Z,984.48
2018-02-15T10:43:43.704Z,984.48
2018-02-15T10:44:50.601Z,984.54
2018-02-15T10:45:57.352Z,984.56
2018-02-15T10:47:04.127Z,984.55
2018-02-15T10:48:10.955Z,984.48
2018-02-15T10:49:17.763Z,984.50
2018-02-15T10:50:24.536Z,984.50
2018-02-15T10:51:31.436Z,984.53
2018-02-15T10:52:38.209Z,984.51
2018-02-15T10:53:44.975Z,984.53
2018-02-15T10:54:51.848Z,984.52
2018-02-15T10:55:58.600Z,984.49
2018-02-15T10:57:05.456Z,984.54
2018-02-15T10:58:12.287Z,984.53
2018-02-15T10:59:19.024Z,984.53
2018-02-15T11:00:25.796Z,984.52
2018-02-15T11:01:32.560Z,984.62
2018-02-15T11:02:39.399Z,984.64
2018-02-15T11:03:46.220Z,984.63
2018-02-15T11:04:53.034Z,984.69
2018-02-15T11:05:59.815Z,984.70
2018-02-15T11:07:06.610Z,984.61
2018-02-15T11:08:13.388Z,984.67
2018-02-15T11:09:20.240Z,984.73
2018-02-15T11:10:27.040Z,984.68
2018-02-15T11:11:33.821Z,984.68
2018-02-15T11:12:40.717Z,984.73
2018-02-15T11:13:47.492Z,984.70
2018-02-15T11:14:54.273Z,984.69
2018-02-15T11:16:01.236Z,984.79
2018-02-15T11:17:08.036Z,984.70
2018-02-15T11:18:14.830Z,984.67
2018-02-15T11:19:21.583Z,984.72
2018-02-15T11:20:28.336Z,984.72
2018-02-15T11:21:35.192Z,984.66
2018-02-15T11:22:42.044Z,984.79
2018-02-15T11:23:48.853Z,984.73
2018-02-15T11:24:55.713Z,984.72
2018-02-15T11:26:02.464Z,984.69
2018-02-15T11:27:09.257Z,984.73
2018-02-15T11:28:16.035Z,984.75
2018-02-15T11:29:22.903Z,984.85
2018-02-15T11:30:29.696Z,984.81
2018-02-15T11:31:36.498Z,984.80
2018-02-15T11:32:43.382Z,984.84
2018-02-15T11:33:50.199Z,984.86
2018-02-15T11:34:56.984Z,984.83
2018-02-15T11:36:03.835Z,984.87
2018-02-15T11:37:10.619Z,984.82
2018-02-15T11:38:17.410Z,984.79
2018-02-15T11:39:24.308Z,984.83
2018-02-15T11:40:31.149Z,984.82
2018-02-15T11:41:37.944Z,984.83
2018-02-15T11:42:44.731Z,984.95
2018-02-15T11:43:51.550Z,984.93
2018-02-15T11:44:58.429Z,984.95
2018-02-15T11:46:05.391Z,984.95
2018-02-15T11:47:12.253Z,984.93
2018-02-15T11:48:19.114Z,984.89
2018-02-15T11:49:26.341Z,984.87
2018-02-15T11:50:33.137Z,984.85
2018-02-15T11:51:40.376Z,984.89
2018-02-15T11:52:46.713Z,984.82
2018-02-15T11:53:53.504Z,984.89
2018-02-15T11:55:00.360Z,984.89
2018-02-15T11:56:07.173Z,984.96
2018-02-15T11:57:14.127Z,984.96
2018-02-15T11:58:21.076Z,985.01
2018-02-15T11:59:28.054Z,985.03
2018-02-15T12:00:34.969Z,985.04
2018-02-15T12:01:41.737Z,985.14
2018-02-15T12:02:48.521Z,985.03
2018-02-15T12:03:55.332Z,984.99
2018-02-15T12:05:02.211Z,984.96
2018-02-15T12:06:09.107Z,984.95
2018-02-15T12:07:16.008Z,985.05
2018-02-15T12:08:22.780Z,984.97
2018-02-15T12:09:29.559Z,984.98
2018-02-15T12:10:36.459Z,984.99
2018-02-15T12:11:43.231Z,984.97
2018-02-15T12:12:50.043Z,984.94
2018-02-15T12:13:56.931Z,984.97
2018-02-15T12:15:03.985Z,984.94
2018-02-15T12:16:10.796Z,984.89
2018-02-15T12:17:17.576Z,984.89
2018-02-15T12:18:24.530Z,984.92
2018-02-15T12:19:31.320Z,984.88
2018-02-15T12:20:38.196Z,984.89
2018-02-15T12:21:45.086Z,984.91
2018-02-15T12:22:51.897Z,984.87
2018-02-15T12:23:58.778Z,984.88
2018-02-15T12:25:05.504Z,984.87
2018-02-15T12:26:12.339Z,984.89
2018-02-15T12:27:19.239Z,984.90
2018-02-15T12:28:26.121Z,984.95
2018-02-15T12:29:33.024Z,984.93
2018-02-15T12:30:39.868Z,984.93
2018-02-15T12:31:46.771Z,985.00
2018-02-15T12:32:53.559Z,984.96
2018-02-15T12:34:00.360Z,984.99
2018-02-15T12:35:07.161Z,985.09
2018-02-15T12:36:14.001Z,985.05
2018-02-15T12:37:20.848Z,985.18
2018-02-15T12:38:27.721Z,985.14
2018-02-15T12:39:34.536Z,985.14
2018-02-15T12:40:41.352Z,985.19
2018-02-15T12:41:48.140Z,985.19
2018-02-15T12:42:56.844Z,985.17
2018-02-15T12:44:03.609Z,985.15
2018-02-15T12:45:10.445Z,985.16
2018-02-15T12:46:17.325Z,985.12
2018-02-15T12:47:24.253Z,985.13
2018-02-15T12:48:31.147Z,985.17
2018-02-15T12:49:37.988Z,985.21
2018-02-15T12:50:44.775Z,985.18
2018-02-15T12:51:51.581Z,985.17
2018-02-15T12:52:58.472Z,985.25
2018-02-15T12:54:05.589Z,985.24
2018-02-15T12:55:11.929Z,985.18
2018-02-15T12:56:18.692Z,985.21
2018-02-15T12:57:25.480Z,985.22
2018-02-15T12:58:32.281Z,985.15
2018-02-15T12:59:39.080Z,985.21
2018-02-15T13:00:45.896Z,985.15
2018-02-15T13:01:52.741Z,985.20
2018-02-15T13:02:59.467Z,985.16
2018-02-15T13:04:06.338Z,985.18
2018-02-15T13:05:13.115Z,985.16
2018-02-15T13:06:19.855Z,985.18
2018-02-15T13:07:26.635Z,985.15
2018-02-15T13:08:33.485Z,985.13
2018-02-15T13:09:40.352Z,985.17
2018-02-15T13:10:47.176Z,985.16
2018-02-15T13:11:54.059Z,985.19
2018-02-15T13:13:00.789Z,985.19
2018-02-15T13:14:07.657Z,985.13
2018-02-15T13:15:14.420Z,985.19
2018-02-15T13:16:21.388Z,985.20
2018-02-15T13:17:28.523Z,985.19
2018-02-15T13:18:35.374Z,985.14
2018-02-15T13:19:42.263Z,985.10
2018-02-15T13:20:49.211Z,985.18
2018-02-15T13:21:55.971Z,985.19
2018-02-15T13:23:02.760Z,985.19
2018-02-15T13:24:09.544Z,985.18
2018-02-15T13:25:16.291Z,985.29
2018-02-15T13:26:23.016Z,985.31
2018-02-15T13:27:29.856Z,985.24
2018-02-15T13:28:36.703Z,985.18
2018-02-15T13:29:43.471Z,985.19
2018-02-15T13:30:50.296Z,985.23
2018-02-15T13:31:57.057Z,985.26
2018-02-15T13:33:03.903Z,985.27
2018-02-15T13:34:10.722Z,985.27
2018-02-15T13:35:17.485Z,985.30
2018-02-15T13:36:24.265Z,985.29
2018-02-15T13:37:31.096Z,985.29
2018-02-15T13:38:37.835Z,985.33
2018-02-15T13:39:44.592Z,985.35
2018-02-15T13:40:51.438Z,985.41
2018-02-15T13:41:58.248Z,985.52
2018-02-15T13:43:05.032Z,985.54
2018-02-15T13:44:11.769Z,985.51
2018-02-15T13:45:18.524Z,985.46
2018-02-15T13:46:25.319Z,985.52
2018-02-15T13:47:32.042Z,985.50
2018-02-15T13:48:38.801Z,985.50
2018-02-15T13:49:45.557Z,985.52
2018-02-15T13:50:52.516Z,985.47
2018-02-15T13:51:59.300Z,985.43